Longwood, North Carolina
Current Conditions -  °F | °C
As of 11:53 AM on Thursday 23 Oct 2014 (Local Time) from KCRE Reporting Station
Clear Clear  
Wind Chill: 63°   Ceiling: Unl
Heat Index: 63°   Visibility: 10mi
Dew Point: 44°   Wind: 7mph
Humidity: 50%   Direction: 300°WNW
Pressure: 30.04"   Gusts: NA
Location:  34°N, 78.54°W
Report Text: KCRE 231553Z 30006KT 10SM CLR 17/07 A3004 RMK AO1 SLP172 T01720067
Loading
Personal Weather Stations






























Interactive Weather Map
Tropical Storm Tracking
New forecast layout! Learn more

10-Day Weather Forecast

Advertisements
Track Severe Weather on mobile